Time;durP1;ratioP1;P1;durP2;ratioP2;P2;SDS_P1;SDS_P2;PMS_P1;PMS_P2;Temp;Humidity;BMP_temperature;BMP_pressure;BME280_temperature;BME280_humidity;BME280_pressure;Samples;Min_cycle;Max_cycle;Signal;HPM_P1;HPM_P2
2023/03/30 00:00:55;;;;;;;22.92;16.55;;;10.50;99.90;;;;;;5037938;28;20053;-73
2023/03/30 00:03:23;;;;;;;23.50;17.30;;;10.70;99.90;;;;;;5037879;28;20494;-74
2023/03/30 00:05:55;;;;;;;26.25;17.23;;;10.70;99.90;;;;;;5038271;28;20388;-74
2023/03/30 00:08:28;;;;;;;24.45;15.93;;;10.70;99.90;;;;;;5055736;28;20117;-74
2023/03/30 00:11:10;;;;;;;23.00;15.93;;;10.60;99.90;;;;;;5055412;28;20118;-73
2023/03/30 00:13:37;;;;;;;25.08;15.90;;;10.60;99.90;;;;;;5055875;28;20052;-74
2023/03/30 00:16:05;;;;;;;22.67;16.42;;;10.50;99.90;;;;;;5037640;28;20048;-73
2023/03/30 00:18:33;;;;;;;22.95;15.57;;;10.60;99.90;;;;;;5037633;28;20045;-74
2023/03/30 00:21:01;;;;;;;22.08;14.05;;;10.60;99.90;;;;;;5055555;28;20084;-73
2023/03/30 00:23:27;;;;;;;22.67;15.07;;;10.60;99.90;;;;;;5055073;28;20056;-74
2023/03/30 00:25:53;;;;;;;23.17;16.15;;;10.60;99.90;;;;;;5037601;28;20124;-73
2023/03/30 00:28:19;;;;;;;21.73;15.40;;;10.60;99.90;;;;;;5037908;28;20049;-73
2023/03/30 00:30:47;;;;;;;22.35;15.07;;;10.60;99.90;;;;;;5037122;28;20076;-74
2023/03/30 00:33:13;;;;;;;24.20;15.63;;;10.70;99.90;;;;;;5037556;28;20593;-74
2023/03/30 00:35:39;;;;;;;21.40;14.50;;;10.60;99.90;;;;;;5054902;28;20036;-74
2023/03/30 00:38:05;;;;;;;21.30;15.90;;;10.60;99.90;;;;;;5020636;28;20037;-74
2023/03/30 00:40:32;;;;;;;22.33;14.57;;;10.60;99.90;;;;;;5054780;28;20060;-74
2023/03/30 00:43:00;;;;;;;18.60;14.60;;;10.60;99.90;;;;;;5054645;28;20056;-74
2023/03/30 00:45:28;;;;;;;19.92;14.02;;;10.60;99.90;;;;;;5020411;28;20501;-74
2023/03/30 00:47:58;;;;;;;21.23;14.60;;;10.60;99.90;;;;;;5036056;28;20045;-73
2023/03/30 00:50:29;;;;;;;17.90;13.52;;;10.60;99.90;;;;;;5037781;28;20099;-74
2023/03/30 00:52:57;;;;;;;21.40;14.27;;;10.60;99.90;;;;;;5036980;28;20079;-74
2023/03/30 00:55:26;;;;;;;19.98;14.15;;;10.70;99.90;;;;;;5036796;28;20076;-73
2023/03/30 00:57:53;;;;;;;18.67;13.75;;;10.80;99.90;;;;;;5036712;28;20084;-73
2023/03/30 01:00:19;;;;;;;20.63;13.63;;;10.60;99.90;;;;;;5037736;28;20135;-73
2023/03/30 01:02:54;;;;;;;17.60;13.27;;;10.70;99.90;;;;;;5036730;28;20463;-74
2023/03/30 01:05:22;;;;;;;20.45;13.52;;;10.70;99.90;;;;;;5054745;28;20422;-74
2023/03/30 01:07:50;;;;;;;19.33;13.38;;;10.80;99.90;;;;;;5036508;28;20071;-73
2023/03/30 01:10:16;;;;;;;19.50;14.02;;;10.60;99.90;;;;;;5054238;28;20053;-74
2023/03/30 01:12:43;;;;;;;19.13;13.07;;;10.60;99.90;;;;;;5036466;28;20049;-74
2023/03/30 01:15:09;;;;;;;17.40;12.73;;;10.70;99.90;;;;;;5054156;28;20052;-74
2023/03/30 01:18:01;;;;;;;17.23;12.63;;;10.60;99.90;;;;;;5054323;28;20048;-73
2023/03/30 01:21:02;;;;;;;19.33;12.73;;;10.60;99.90;;;;;;5020770;28;20045;-73
2023/03/30 01:24:06;;;;;;;18.77;12.60;;;10.70;99.90;;;;;;5020765;28;20051;-73
2023/03/30 01:26:52;;;;;;;16.33;11.90;;;10.60;99.90;;;;;;5053833;28;20092;-74
2023/03/30 01:29:50;;;;;;;19.55;12.40;;;10.70;99.90;;;;;;5054029;28;20103;-73
2023/03/30 01:32:43;;;;;;;15.68;10.57;;;10.60;99.90;;;;;;4998633;28;20057;-73
2023/03/30 01:35:18;;;;;;;16.23;11.02;;;10.70;99.90;;;;;;5053641;28;20127;-73
2023/03/30 01:38:20;;;;;;;18.42;12.35;;;10.60;99.90;;;;;;5035866;28;20483;-73
2023/03/30 01:41:11;;;;;;;15.45;11.15;;;10.70;99.90;;;;;;5035765;28;20045;-73
2023/03/30 01:43:59;;;;;;;15.23;10.52;;;10.60;99.90;;;;;;5035924;28;20138;-73
2023/03/30 01:46:32;;;;;;;14.25;10.50;;;10.60;99.90;;;;;;5053875;28;20391;-73
2023/03/30 01:49:24;;;;;;;14.00;9.43;;;10.60;99.90;;;;;;5036100;28;20124;-74
2023/03/30 01:51:57;;;;;;;14.63;10.13;;;10.60;99.90;;;;;;5042324;28;20402;-73
2023/03/30 01:54:29;;;;;;;13.02;9.45;;;10.70;99.90;;;;;;5036394;28;20049;-73
2023/03/30 01:57:12;;;;;;;14.27;9.10;;;10.60;99.90;;;;;;5035443;28;20067;-73
2023/03/30 01:59:55;;;;;;;9.95;8.32;;;10.70;99.90;;;;;;5052870;28;20056;-74
2023/03/30 02:02:23;;;;;;;10.75;8.00;;;10.70;99.90;;;;;;5036535;28;20052;-73
2023/03/30 02:04:53;;;;;;;12.18;7.47;;;10.60;99.90;;;;;;5053367;28;20431;-73
2023/03/30 02:07:25;;;;;;;10.55;7.03;;;10.60;99.90;;;;;;5053532;28;20049;-73
2023/03/30 02:09:55;;;;;;;10.10;6.93;;;10.60;99.90;;;;;;5036015;28;20051;-73
2023/03/30 02:12:22;;;;;;;11.60;7.32;;;10.60;99.90;;;;;;5052765;28;20131;-73
2023/03/30 02:14:48;;;;;;;10.15;5.97;;;10.60;99.90;;;;;;5035313;28;20254;-73
2023/03/30 02:17:21;;;;;;;8.80;5.80;;;10.70;99.90;;;;;;5052828;28;20049;-74
2023/03/30 02:19:48;;;;;;;8.20;5.75;;;10.80;99.90;;;;;;5034781;28;20051;-73
2023/03/30 02:22:16;;;;;;;7.72;4.75;;;10.70;99.90;;;;;;5018904;28;20137;-73
2023/03/30 02:24:45;;;;;;;9.52;5.25;;;10.70;99.90;;;;;;5052974;28;20108;-72
2023/03/30 02:27:11;;;;;;;8.43;5.57;;;10.70;99.90;;;;;;5053115;28;20048;-73
2023/03/30 02:29:41;;;;;;;8.73;4.78;;;10.80;99.90;;;;;;5036265;28;20049;-73
2023/03/30 02:32:17;;;;;;;6.80;4.55;;;10.80;99.90;;;;;;5053840;28;20048;-73
2023/03/30 02:34:46;;;;;;;8.50;4.60;;;10.80;99.90;;;;;;5035743;28;20049;-73
2023/03/30 02:37:46;;;;;;;9.57;5.10;;;10.90;99.90;;;;;;5035402;28;20048;-73
2023/03/30 02:40:31;;;;;;;6.90;4.22;;;10.90;99.90;;;;;;5052270;28;20053;-74
2023/03/30 02:43:21;;;;;;;7.40;4.80;;;10.90;99.90;;;;;;5036415;28;20056;-73
2023/03/30 02:46:05;;;;;;;7.00;4.53;;;10.90;99.90;;;;;;5020769;28;20053;-72
2023/03/30 02:48:40;;;;;;;7.88;4.53;;;10.90;99.90;;;;;;5053524;28;20059;-72
2023/03/30 02:51:27;;;;;;;5.97;4.45;;;10.90;99.90;;;;;;5019952;28;20060;-72
2023/03/30 02:54:06;;;;;;;7.20;4.22;;;11.10;99.90;;;;;;5052807;28;20041;-72
2023/03/30 02:56:46;;;;;;;7.03;4.28;;;11.20;99.90;;;;;;5053398;28;20060;-72
2023/03/30 02:59:28;;;;;;;7.07;3.78;;;10.90;99.90;;;;;;5019010;28;20053;-72
2023/03/30 03:02:16;;;;;;;6.70;3.50;;;11.00;99.90;;;;;;5052971;28;20375;-73
2023/03/30 03:04:45;;;;;;;3.95;3.17;;;11.10;99.90;;;;;;5038910;28;20373;-73
2023/03/30 03:07:12;;;;;;;6.15;3.72;;;11.30;99.90;;;;;;5035111;28;20628;-73
2023/03/30 03:09:38;;;;;;;5.63;3.50;;;11.10;99.90;;;;;;5052705;28;20045;-73
2023/03/30 03:12:04;;;;;;;4.85;3.50;;;11.20;99.90;;;;;;5055597;28;20065;-73
2023/03/30 03:14:30;;;;;;;5.22;3.47;;;11.10;99.90;;;;;;5022325;28;20059;-73
2023/03/30 03:16:56;;;;;;;5.80;3.35;;;11.10;99.90;;;;;;5006223;28;20478;-73
2023/03/30 03:19:22;;;;;;;5.68;3.80;;;11.20;99.90;;;;;;5006526;28;20479;-73
2023/03/30 03:21:48;;;;;;;5.15;3.33;;;11.00;99.90;;;;;;5038663;28;20140;-73
2023/03/30 03:24:16;;;;;;;6.80;3.53;;;11.30;99.90;;;;;;5038876;28;20084;-73
2023/03/30 03:26:42;;;;;;;7.50;4.07;;;11.10;99.90;;;;;;5039159;28;20506;-74
2023/03/30 03:29:09;;;;;;;6.88;3.60;;;11.10;99.90;;;;;;5055889;28;20052;-73
2023/03/30 03:31:34;;;;;;;5.22;3.25;;;10.90;99.90;;;;;;5038627;28;20057;-72
2023/03/30 03:34:00;;;;;;;6.35;3.30;;;11.10;99.90;;;;;;5056326;28;20064;-72
2023/03/30 03:36:26;;;;;;;5.88;3.70;;;11.00;99.90;;;;;;5038400;28;20498;-72
2023/03/30 03:38:52;;;;;;;7.68;3.92;;;11.10;99.90;;;;;;5039256;28;20041;-72
2023/03/30 03:41:18;;;;;;;5.85;3.20;;;11.10;99.90;;;;;;5056043;28;20052;-73
2023/03/30 03:43:44;;;;;;;9.18;3.80;;;11.10;99.90;;;;;;5056331;28;20045;-73
2023/03/30 03:46:10;;;;;;;5.25;3.20;;;11.10;99.90;;;;;;5037793;28;20383;-73
2023/03/30 03:48:36;;;;;;;7.55;3.28;;;11.10;99.90;;;;;;5056201;28;20491;-72
2023/03/30 03:51:02;;;;;;;6.28;3.67;;;11.10;99.90;;;;;;5022375;28;20139;-73
2023/03/30 03:53:28;;;;;;;7.18;3.63;;;11.20;99.90;;;;;;5038419;28;20045;-73
2023/03/30 03:55:54;;;;;;;11.63;4.82;;;11.20;99.90;;;;;;5038774;28;20044;-73
2023/03/30 03:58:21;;;;;;;6.63;3.42;;;11.10;99.90;;;;;;5037874;28;20344;-73
2023/03/30 04:00:47;;;;;;;6.75;3.38;;;11.10;99.90;;;;;;5022245;28;20132;-73
2023/03/30 04:03:12;;;;;;;7.78;3.75;;;11.00;99.90;;;;;;5055461;28;20049;-73
2023/03/30 04:05:39;;;;;;;5.95;3.13;;;11.10;99.90;;;;;;5037833;28;20052;-73
2023/03/30 04:08:09;;;;;;;4.35;2.80;;;11.10;99.90;;;;;;5038275;28;20093;-73
2023/03/30 04:10:36;;;;;;;6.00;2.90;;;11.10;99.90;;;;;;5037754;28;20375;-74
2023/03/30 04:13:02;;;;;;;4.20;2.80;;;11.10;99.90;;;;;;5038446;28;20139;-73
2023/03/30 04:15:28;;;;;;;6.15;3.08;;;11.10;99.90;;;;;;5055408;28;20045;-73
2023/03/30 04:17:56;;;;;;;7.40;3.55;;;11.20;99.90;;;;;;5038259;28;20033;-73
2023/03/30 04:20:27;;;;;;;4.18;2.60;;;11.20;99.90;;;;;;5038080;28;20041;-73
2023/03/30 04:22:53;;;;;;;4.90;3.20;;;11.20;99.90;;;;;;5020971;28;20044;-73
2023/03/30 04:25:26;;;;;;;6.88;2.97;;;11.20;99.90;;;;;;5037640;28;20091;-74
2023/03/30 04:27:52;;;;;;;6.47;3.45;;;11.10;99.90;;;;;;5038433;28;20106;-74
2023/03/30 04:30:21;;;;;;;6.25;3.75;;;11.40;99.90;;;;;;5021119;28;20041;-73
2023/03/30 04:33:01;;;;;;;7.47;3.03;;;11.20;99.90;;;;;;5037272;28;20052;-72
2023/03/30 04:35:30;;;;;;;4.80;2.95;;;11.20;99.90;;;;;;5037145;28;20049;-73
2023/03/30 04:37:57;;;;;;;8.05;3.15;;;11.20;99.90;;;;;;5055008;28;20076;-72
2023/03/30 04:40:23;;;;;;;9.27;2.80;;;11.20;99.90;;;;;;5054972;28;20110;-71
2023/03/30 04:42:49;;;;;;;4.85;2.53;;;11.20;99.90;;;;;;5054869;28;20045;-71
2023/03/30 04:45:17;;;;;;;9.15;2.53;;;11.10;99.90;;;;;;5036918;28;20059;-71
2023/03/30 04:47:44;;;;;;;6.93;2.60;;;11.10;99.90;;;;;;5055188;28;20051;-72
2023/03/30 04:50:10;;;;;;;5.78;2.05;;;11.10;99.90;;;;;;5037281;28;20052;-72
2023/03/30 04:52:36;;;;;;;4.55;2.33;;;11.10;99.90;;;;;;5036952;28;20052;-73
2023/03/30 04:55:01;;;;;;;6.30;2.30;;;11.20;99.90;;;;;;5055421;28;20045;-72
2023/03/30 04:57:27;;;;;;;7.72;2.17;;;11.10;99.90;;;;;;5054609;28;20474;-72
2023/03/30 04:59:53;;;;;;;4.55;2.10;;;11.20;99.90;;;;;;5036629;28;20048;-70
2023/03/30 05:02:18;;;;;;;5.78;2.40;;;11.10;99.90;;;;;;5054366;28;20049;-71
2023/03/30 05:04:44;;;;;;;4.97;1.88;;;11.20;99.90;;;;;;5020066;28;20041;-73
2023/03/30 05:07:10;;;;;;;4.82;2.30;;;11.10;99.90;;;;;;5021010;28;20447;-72
2023/03/30 05:09:36;;;;;;;4.68;2.15;;;11.20;99.90;;;;;;5020329;28;20479;-72
2023/03/30 05:12:03;;;;;;;5.25;2.20;;;11.20;99.90;;;;;;5054766;28;20048;-72
2023/03/30 05:14:29;;;;;;;4.90;2.30;;;11.20;99.90;;;;;;5054133;28;20049;-72
2023/03/30 05:16:55;;;;;;;7.25;1.77;;;11.30;99.90;;;;;;5054704;28;20433;-72
2023/03/30 05:19:20;;;;;;;4.05;1.90;;;11.20;99.90;;;;;;5054124;28;20043;-73
2023/03/30 05:21:46;;;;;;;5.05;1.75;;;11.30;99.90;;;;;;5053984;28;20053;-71
2023/03/30 05:24:12;;;;;;;7.78;2.10;;;11.40;99.90;;;;;;5036155;28;20064;-72
2023/03/30 05:26:38;;;;;;;7.25;2.10;;;11.30;99.90;;;;;;5036291;28;20121;-72
2023/03/30 05:29:04;;;;;;;4.07;1.90;;;11.40;99.90;;;;;;5054107;28;20049;-72
2023/03/30 05:31:30;;;;;;;4.68;1.67;;;11.40;99.90;;;;;;5054133;28;20072;-72
2023/03/30 05:33:56;;;;;;;7.00;2.03;;;11.50;99.90;;;;;;5053771;28;20467;-71
2023/03/30 05:36:21;;;;;;;5.65;2.10;;;11.70;99.90;;;;;;5036376;28;20041;-71
2023/03/30 05:38:47;;;;;;;7.50;2.10;;;11.60;99.90;;;;;;5035931;28;20049;-73
2023/03/30 05:41:13;;;;;;;5.03;1.67;;;11.60;99.90;;;;;;5036807;28;20057;-72
2023/03/30 05:43:39;;;;;;;5.43;1.92;;;11.70;99.90;;;;;;5053539;28;20376;-72
2023/03/30 05:46:05;;;;;;;4.75;1.90;;;11.70;99.90;;;;;;5015918;28;20054;-70
2023/03/30 05:48:31;;;;;;;4.85;2.10;;;11.80;99.90;;;;;;5016505;28;20091;-71
2023/03/30 05:50:57;;;;;;;6.43;1.88;;;11.80;99.90;;;;;;5034591;28;20081;-72
2023/03/30 05:53:23;;;;;;;7.18;2.25;;;11.80;99.90;;;;;;5016220;28;20049;-72
2023/03/30 05:55:49;;;;;;;6.00;2.78;;;11.70;99.90;;;;;;5034295;28;20056;-72
2023/03/30 05:58:15;;;;;;;3.42;2.65;;;11.80;99.90;;;;;;5032593;28;20117;-73
2023/03/30 06:00:43;;;;;;;6.25;2.53;;;11.80;99.90;;;;;;5033476;28;20402;-71
2023/03/30 06:03:09;;;;;;;6.55;2.85;;;11.70;99.90;;;;;;5033905;28;20046;-71
2023/03/30 06:05:38;;;;;;;7.70;2.60;;;11.80;99.90;;;;;;5033880;28;20056;-71
2023/03/30 06:08:06;;;;;;;5.03;2.90;;;11.80;99.90;;;;;;5033358;28;20042;-71
2023/03/30 06:10:33;;;;;;;6.63;2.55;;;11.90;99.90;;;;;;5033338;28;20053;-71
2023/03/30 06:12:59;;;;;;;5.75;3.00;;;11.80;99.90;;;;;;5033320;28;20049;-71
2023/03/30 06:15:25;;;;;;;6.65;2.90;;;11.80;99.90;;;;;;5032866;28;20091;-71
2023/03/30 06:17:51;;;;;;;8.23;3.30;;;11.70;99.90;;;;;;5031921;28;20159;-72
2023/03/30 06:20:20;;;;;;;6.22;2.45;;;11.70;99.90;;;;;;5033277;28;20041;-72
2023/03/30 06:22:47;;;;;;;7.30;3.15;;;11.70;99.90;;;;;;5033409;28;20053;-71
2023/03/30 06:25:13;;;;;;;5.70;2.67;;;11.70;99.90;;;;;;5032185;28;20049;-71
2023/03/30 06:27:39;;;;;;;9.38;2.85;;;11.80;99.90;;;;;;5033394;28;20124;-71
2023/03/30 06:30:08;;;;;;;5.88;2.65;;;11.70;99.90;;;;;;5032417;28;20089;-71
2023/03/30 06:32:34;;;;;;;5.22;2.63;;;11.70;99.90;;;;;;5033235;28;20050;-72
2023/03/30 06:35:00;;;;;;;4.82;2.45;;;11.80;99.90;;;;;;5031917;28;20080;-71
2023/03/30 06:37:26;;;;;;;4.32;2.28;;;11.80;99.90;;;;;;5033213;28;20088;-71
2023/03/30 06:39:52;;;;;;;6.40;2.53;;;11.80;99.90;;;;;;5033770;28;20104;-73
2023/03/30 06:42:18;;;;;;;5.78;2.65;;;11.70;99.90;;;;;;5033587;28;20049;-71
2023/03/30 06:44:43;;;;;;;7.28;2.53;;;12.00;99.90;;;;;;5033022;28;20049;-72
2023/03/30 06:53:23;;;;;;;4.07;2.72;;;12.00;99.90;;;;;;5094282;23;20043;-73
2023/03/30 06:55:54;;;;;;;7.65;3.05;;;12.10;99.90;;;;;;4978460;28;20492;-72
2023/03/30 06:58:20;;;;;;;4.18;2.63;;;12.10;99.90;;;;;;4978033;28;20429;-72
2023/03/30 07:00:46;;;;;;;7.93;2.83;;;12.20;99.90;;;;;;4979204;28;20055;-72
2023/03/30 07:03:12;;;;;;;7.05;2.60;;;12.10;99.90;;;;;;4978096;28;20492;-72
2023/03/30 07:05:38;;;;;;;3.88;1.80;;;12.10;99.90;;;;;;4945209;28;20094;-73
2023/03/30 07:08:05;;;;;;;4.30;2.38;;;12.10;99.90;;;;;;4960913;28;20045;-73
2023/03/30 07:10:31;;;;;;;3.90;2.17;;;12.30;99.90;;;;;;4961085;28;20074;-73
2023/03/30 07:12:57;;;;;;;4.47;2.00;;;12.20;99.90;;;;;;4978994;28;20122;-72
2023/03/30 07:15:23;;;;;;;8.10;3.90;;;12.20;99.90;;;;;;4978181;28;20126;-73
2023/03/30 07:17:49;;;;;;;8.07;3.28;;;12.30;99.90;;;;;;4960880;28;20051;-72
2023/03/30 07:20:15;;;;;;;5.55;2.42;;;12.50;99.90;;;;;;4978213;28;20079;-71
2023/03/30 07:22:41;;;;;;;2.80;1.75;;;12.30;99.90;;;;;;4978193;28;20070;-72
2023/03/30 07:25:08;;;;;;;6.00;1.90;;;12.30;99.90;;;;;;4961055;28;20079;-73
2023/03/30 07:27:35;;;;;;;5.32;2.10;;;12.50;99.90;;;;;;4961593;28;20523;-72
2023/03/30 07:30:02;;;;;;;4.53;1.85;;;12.40;99.90;;;;;;4983659;28;20123;-72
2023/03/30 07:32:28;;;;;;;7.38;2.10;;;12.40;99.90;;;;;;4986847;28;20047;-72
2023/03/30 07:34:54;;;;;;;7.53;2.95;;;12.50;99.90;;;;;;4966106;28;20043;-71
2023/03/30 07:37:19;;;;;;;4.40;1.85;;;12.60;99.90;;;;;;4979463;28;20042;-70
2023/03/30 07:39:45;;;;;;;5.15;2.15;;;11.90;99.90;;;;;;4977534;28;20039;-73
2023/03/30 07:42:11;;;;;;;6.20;1.80;;;12.60;99.90;;;;;;4945337;28;20058;-73
2023/03/30 07:44:36;;;;;;;5.50;2.10;;;12.60;99.90;;;;;;4977651;28;20043;-74
2023/03/30 07:47:05;;;;;;;9.30;2.38;;;12.80;99.90;;;;;;4960479;28;20492;-72
2023/03/30 07:49:31;;;;;;;6.18;2.33;;;12.60;99.90;;;;;;4960562;28;20054;-73
2023/03/30 07:51:58;;;;;;;7.68;2.55;;;12.50;99.90;;;;;;4943739;28;20125;-73
2023/03/30 07:54:24;;;;;;;7.57;2.80;;;12.90;99.90;;;;;;4961067;28;20059;-73
2023/03/30 07:56:51;;;;;;;9.38;2.42;;;12.40;99.90;;;;;;4927945;28;20046;-71
2023/03/30 07:59:19;;;;;;;7.38;2.85;;;12.50;99.90;;;;;;4976913;28;20543;-71
2023/03/30 08:01:45;;;;;;;7.47;2.20;;;12.30;99.90;;;;;;4978065;28;20051;-72
2023/03/30 08:04:14;;;;;;;7.00;2.60;;;12.30;99.90;;;;;;4960261;28;20066;-72
2023/03/30 08:06:40;;;;;;;6.30;2.35;;;12.10;99.90;;;;;;4961523;28;20043;-73
2023/03/30 08:09:06;;;;;;;7.82;2.65;;;12.00;99.90;;;;;;4952636;28;20483;-72
2023/03/30 08:11:34;;;;;;;10.52;2.28;;;12.10;99.90;;;;;;4967608;28;20047;-71
2023/03/30 08:14:00;;;;;;;6.88;2.35;;;11.90;99.90;;;;;;4944788;28;20081;-71
2023/03/30 08:16:26;;;;;;;8.88;2.58;;;12.00;99.90;;;;;;4959851;28;20054;-71
2023/03/30 08:18:53;;;;;;;11.80;2.50;;;11.90;99.90;;;;;;4928016;28;20055;-72
2023/03/30 08:21:24;;;;;;;12.15;2.35;;;11.90;99.90;;;;;;4976916;28;20054;-72
2023/03/30 08:23:58;;;;;;;9.88;2.30;;;11.90;99.90;;;;;;4960074;28;20059;-73
2023/03/30 08:26:29;;;;;;;12.43;2.80;;;11.90;99.90;;;;;;4976896;28;20057;-70
2023/03/30 08:28:56;;;;;;;9.45;3.65;;;11.80;99.90;;;;;;4977252;28;20050;-71
2023/03/30 08:31:22;;;;;;;11.30;4.30;;;11.90;99.90;;;;;;4976728;28;20051;-72
2023/03/30 08:33:48;;;;;;;9.15;2.25;;;11.90;99.90;;;;;;4960386;28;20448;-73
2023/03/30 08:36:14;;;;;;;13.10;2.15;;;11.80;99.90;;;;;;4976748;28;20082;-72
2023/03/30 08:38:41;;;;;;;9.00;2.13;;;11.90;99.90;;;;;;4976583;28;20085;-72
2023/03/30 08:41:32;;;;;;;10.13;2.30;;;11.90;99.90;;;;;;4944080;28;20054;-72
2023/03/30 08:44:01;;;;;;;10.45;2.80;;;11.80;99.90;;;;;;4950401;28;20482;-72
2023/03/30 08:46:28;;;;;;;11.57;2.53;;;11.80;99.90;;;;;;4959337;28;20043;-73
2023/03/30 08:48:58;;;;;;;11.73;3.13;;;11.60;99.90;;;;;;4959424;28;20121;-71
2023/03/30 08:51:27;;;;;;;12.73;2.72;;;11.50;99.90;;;;;;4959280;28;20447;-72
2023/03/30 08:54:00;;;;;;;13.35;3.38;;;11.40;99.90;;;;;;4944297;28;20133;-73
2023/03/30 08:56:30;;;;;;;10.48;2.72;;;11.40;99.90;;;;;;4959544;28;20129;-70
2023/03/30 08:59:24;;;;;;;17.60;3.40;;;11.40;99.90;;;;;;4976912;28;20220;-72
2023/03/30 09:02:11;;;;;;;9.52;2.53;;;10.20;99.90;;;;;;4960169;28;20050;-73
2023/03/30 09:05:00;;;;;;;12.98;2.50;;;11.40;99.90;;;;;;4943473;28;20057;-74
2023/03/30 09:07:40;;;;;;;12.38;3.22;;;11.30;99.90;;;;;;4976960;28;20188;-73
2023/03/30 09:10:14;;;;;;;9.57;2.10;;;11.40;99.90;;;;;;4975548;28;20046;-70
2023/03/30 09:12:49;;;;;;;9.50;2.25;;;11.50;99.90;;;;;;4976596;28;20357;-71
2023/03/30 09:15:24;;;;;;;10.73;2.20;;;11.60;99.90;;;;;;4975952;28;20062;-72
2023/03/30 09:18:03;;;;;;;10.93;2.22;;;11.50;99.90;;;;;;4959680;28;20051;-70
2023/03/30 09:20:32;;;;;;;14.20;2.42;;;11.50;99.90;;;;;;4958356;28;20078;-74
2023/03/30 09:23:00;;;;;;;12.75;2.22;;;11.60;99.90;;;;;;4975777;28;20047;-74
2023/03/30 09:25:49;;;;;;;10.15;2.20;;;11.70;99.90;;;;;;4958658;28;20061;-73
2023/03/30 09:28:21;;;;;;;7.60;2.10;;;11.80;99.90;;;;;;4959510;28;20081;-76
2023/03/30 09:31:12;;;;;;;9.98;2.30;;;11.90;99.90;;;;;;4975762;28;20105;-78
2023/03/30 09:33:45;;;;;;;11.27;2.17;;;12.00;99.90;;;;;;4976232;28;20129;-78
2023/03/30 09:36:17;;;;;;;15.90;2.47;;;12.20;99.90;;;;;;4976195;28;20046;-76
2023/03/30 09:38:44;;;;;;;13.65;2.17;;;12.40;99.90;;;;;;4958060;28;20047;-74
2023/03/30 09:41:40;;;;;;;16.02;3.08;;;12.30;99.90;;;;;;4942583;28;20086;-73
2023/03/30 09:44:18;;;;;;;14.80;2.33;;;12.30;99.90;;;;;;4942924;28;20482;-73
2023/03/30 09:46:44;;;;;;;12.27;1.60;;;12.40;99.90;;;;;;4959223;28;20076;-74
2023/03/30 09:49:16;;;;;;;9.48;1.85;;;12.40;99.90;;;;;;4958417;28;20050;-74
2023/03/30 09:52:04;;;;;;;9.43;1.52;;;12.40;99.90;;;;;;4974861;28;20051;-72
2023/03/30 09:54:37;;;;;;;15.85;1.52;;;12.50;99.90;;;;;;4957211;28;20055;-72
2023/03/30 09:57:03;;;;;;;12.35;2.25;;;12.60;99.90;;;;;;4958849;28;20053;-77
2023/03/30 09:59:30;;;;;;;8.38;1.95;;;12.50;99.90;;;;;;4958728;28;20165;-74
2023/03/30 10:02:15;;;;;;;12.02;1.45;;;12.60;99.90;;;;;;4942042;28;20046;-76
2023/03/30 10:04:53;;;;;;;9.73;1.70;;;12.60;99.90;;;;;;4958956;28;20050;-75
2023/03/30 10:07:23;;;;;;;11.30;2.10;;;12.60;99.90;;;;;;4958023;28;20154;-77
2023/03/30 10:09:49;;;;;;;9.70;1.30;;;12.70;99.90;;;;;;4957835;28;20042;-73
2023/03/30 10:12:15;;;;;;;6.95;1.33;;;12.80;99.90;;;;;;4942857;28;20066;-74
2023/03/30 10:14:41;;;;;;;9.57;2.10;;;12.80;99.90;;;;;;4942003;28;20408;-74
2023/03/30 10:17:19;;;;;;;20.27;5.90;;;12.90;99.90;;;;;;4957802;28;20389;-73
2023/03/30 10:19:45;;;;;;;8.32;1.55;;;12.90;99.90;;;;;;4957570;28;20512;-75
2023/03/30 10:22:16;;;;;;;7.90;1.55;;;12.90;99.90;;;;;;4942062;28;20051;-74
2023/03/30 10:24:51;;;;;;;6.97;1.17;;;13.00;99.90;;;;;;4974930;28;20404;-72
2023/03/30 10:27:18;;;;;;;10.27;1.45;;;12.80;99.90;;;;;;4957688;28;20480;-70
2023/03/30 10:29:47;;;;;;;7.95;1.65;;;12.60;99.90;;;;;;4957652;28;20054;-76
2023/03/30 10:32:26;;;;;;;11.30;1.73;;;12.80;99.90;;;;;;4957697;28;20543;-73
2023/03/30 10:34:55;;;;;;;8.05;1.52;;;12.70;99.90;;;;;;4957451;28;20137;-73
2023/03/30 10:37:42;;;;;;;7.20;1.67;;;12.70;99.90;;;;;;4941688;28;20042;-72
2023/03/30 10:40:22;;;;;;;5.13;0.75;;;12.70;99.90;;;;;;4958238;28;20051;-73
2023/03/30 10:42:54;;;;;;;6.38;0.93;;;12.80;99.90;;;;;;4957920;28;20449;-72
2023/03/30 10:45:26;;;;;;;7.57;1.13;;;12.80;99.90;;;;;;4957860;28;20051;-71
2023/03/30 10:48:17;;;;;;;7.65;1.02;;;12.80;99.90;;;;;;4974724;28;20154;-73
2023/03/30 10:50:58;;;;;;;6.63;1.20;;;12.70;99.90;;;;;;4958455;28;20046;-73
2023/03/30 10:53:45;;;;;;;8.82;0.98;;;12.70;99.90;;;;;;4956949;28;20054;-73
2023/03/30 10:56:31;;;;;;;5.82;1.00;;;12.70;99.90;;;;;;4957696;28;20059;-75
2023/03/30 10:59:24;;;;;;;11.43;1.40;;;12.70;99.90;;;;;;4957456;28;20557;-74
2023/03/30 11:02:20;;;;;;;5.72;0.98;;;12.60;99.90;;;;;;4957235;28;20054;-75
2023/03/30 11:04:49;;;;;;;8.85;1.38;;;12.70;99.90;;;;;;4957449;28;20055;-74
2023/03/30 11:07:39;;;;;;;9.40;1.42;;;12.60;99.90;;;;;;4958260;28;20043;-80
2023/03/30 11:10:21;;;;;;;9.13;1.58;;;11.60;99.90;;;;;;4957337;28;20527;-71
2023/03/30 11:13:06;;;;;;;13.10;1.70;;;12.60;99.90;;;;;;4957401;28;20488;-73
2023/03/30 11:15:43;;;;;;;9.55;1.40;;;12.60;99.90;;;;;;4958112;28;20082;-74
2023/03/30 11:18:12;;;;;;;10.55;1.30;;;12.50;99.90;;;;;;4974219;28;20105;-74
2023/03/30 11:21:07;;;;;;;10.80;1.50;;;12.60;99.90;;;;;;4974146;28;20093;-73
2023/03/30 11:23:50;;;;;;;11.85;1.33;;;12.70;99.90;;;;;;4957660;28;20046;-72
2023/03/30 11:26:26;;;;;;;12.18;2.03;;;12.70;99.90;;;;;;4974273;28;20050;-72
2023/03/30 11:29:06;;;;;;;11.07;1.90;;;12.80;99.90;;;;;;4974847;28;20053;-73
2023/03/30 11:31:41;;;;;;;9.52;1.38;;;12.50;99.90;;;;;;4958580;28;20129;-72
2023/03/30 11:34:26;;;;;;;10.10;1.58;;;12.80;99.90;;;;;;4978116;28;20106;-75
2023/03/30 11:37:05;;;;;;;16.05;2.00;;;13.40;99.90;;;;;;4929633;28;20053;-73
2023/03/30 11:39:40;;;;;;;10.80;2.78;;;11.60;99.90;;;;;;4960446;28;20047;-74
2023/03/30 11:42:30;;;;;;;7.90;1.73;;;12.80;99.90;;;;;;4977804;28;20049;-74
2023/03/30 11:44:58;;;;;;;14.50;1.70;;;12.70;99.90;;;;;;4944866;28;20047;-71
2023/03/30 11:47:43;;;;;;;12.25;1.70;;;12.90;99.90;;;;;;4960285;28;20051;-73
2023/03/30 11:50:19;;;;;;;9.18;1.75;;;12.80;99.90;;;;;;4961220;28;20054;-73
2023/03/30 11:53:03;;;;;;;8.95;1.90;;;12.90;99.90;;;;;;4960531;28;20058;-71
2023/03/30 11:55:37;;;;;;;7.68;1.50;;;13.00;99.90;;;;;;4977758;28;20121;-72
2023/03/30 11:58:12;;;;;;;15.20;1.92;;;13.00;99.90;;;;;;4977404;28;20043;-71
2023/03/30 12:00:50;;;;;;;11.35;2.03;;;13.10;99.90;;;;;;4977395;28;20043;-75
2023/03/30 12:03:39;;;;;;;11.75;2.28;;;13.30;99.90;;;;;;4944339;28;20047;-74
2023/03/30 12:06:37;;;;;;;12.18;2.75;;;13.40;99.90;;;;;;4977271;28;20050;-73
2023/03/30 12:09:35;;;;;;;12.90;1.92;;;13.70;99.90;;;;;;4976371;28;20054;-74
2023/03/30 12:12:10;;;;;;;9.80;1.63;;;13.90;99.90;;;;;;4978122;28;20412;-75
2023/03/30 12:14:52;;;;;;;8.32;1.58;;;13.70;99.90;;;;;;4960382;28;20440;-76
2023/03/30 12:17:32;;;;;;;8.75;1.23;;;14.10;99.90;;;;;;4977478;28;20039;-75
2023/03/30 12:20:10;;;;;;;11.45;1.67;;;14.10;99.90;;;;;;4977692;28;20046;-72
2023/03/30 12:22:42;;;;;;;11.18;1.75;;;14.20;99.90;;;;;;4959976;28;20483;-72
2023/03/30 12:25:35;;;;;;;9.00;1.10;;;14.10;99.90;;;;;;4960224;28;20057;-70
2023/03/30 12:28:16;;;;;;;7.28;1.50;;;14.10;99.90;;;;;;4977058;28;20050;-71
2023/03/30 12:31:00;;;;;;;8.63;1.58;;;13.90;99.90;;;;;;4977478;28;20428;-71
2023/03/30 12:33:44;;;;;;;7.88;1.10;;;14.00;99.90;;;;;;4976878;28;20639;-73
2023/03/30 12:36:27;;;;;;;11.93;1.95;;;14.20;99.90;;;;;;4960587;28;20047;-72
2023/03/30 12:39:01;;;;;;;9.85;1.25;;;14.00;99.90;;;;;;4943530;28;20047;-71
2023/03/30 12:41:36;;;;;;;9.20;1.50;;;14.00;99.90;;;;;;4976127;28;20157;-72
2023/03/30 12:44:15;;;;;;;8.23;1.15;;;14.10;99.90;;;;;;4959815;28;20050;-71
2023/03/30 12:47:18;;;;;;;8.52;1.45;;;14.10;99.90;;;;;;4959953;28;20047;-73
2023/03/30 12:50:05;;;;;;;18.50;2.35;;;14.00;99.90;;;;;;4976247;28;20065;-71
2023/03/30 12:53:12;;;;;;;8.98;1.42;;;13.80;99.90;;;;;;4956630;29;20059;-70
2023/03/30 12:55:37;;;;;;;15.27;2.20;;;13.90;99.90;;;;;;4964284;28;20096;-71
2023/03/30 12:58:15;;;;;;;10.85;1.50;;;14.10;99.90;;;;;;4964578;29;20070;-73
2023/03/30 13:01:01;;;;;;;11.70;1.40;;;14.10;99.90;;;;;;4942067;29;20047;-72
2023/03/30 13:03:48;;;;;;;11.95;1.58;;;14.10;99.90;;;;;;4957083;28;20405;-72
2023/03/30 13:06:35;;;;;;;10.43;1.60;;;14.20;99.90;;;;;;4955876;29;20051;-70
2023/03/30 13:09:06;;;;;;;12.10;1.63;;;14.30;99.90;;;;;;4955828;29;20055;-71
2023/03/30 13:11:46;;;;;;;11.60;2.03;;;14.40;99.90;;;;;;4956754;29;20060;-70
2023/03/30 13:14:44;;;;;;;9.15;1.50;;;14.60;99.90;;;;;;4955767;29;20134;-71